sensor_id;sensor_type;location;lat;lon;timestamp;temperature;humidity
52643;DHT22;38531;53.296;6.614;2022-09-16T00:01:24;11.30;99.90
52643;DHT22;38531;53.296;6.614;2022-09-16T00:03:54;11.20;99.90
52643;DHT22;38531;53.296;6.614;2022-09-16T00:08:48;10.90;99.90
52643;DHT22;38531;53.296;6.614;2022-09-16T00:11:15;11.30;99.90
52643;DHT22;38531;53.296;6.614;2022-09-16T00:13:40;11.20;99.90
52643;DHT22;38531;53.296;6.614;2022-09-16T00:16:11;11.30;99.90
52643;DHT22;38531;53.296;6.614;2022-09-16T00:18:38;11.20;99.90
52643;DHT22;38531;53.296;6.614;2022-09-16T00:21:07;11.30;99.90
52643;DHT22;38531;53.296;6.614;2022-09-16T00:23:33;11.30;99.90
52643;DHT22;38531;53.296;6.614;2022-09-16T00:25:59;11.20;99.90
52643;DHT22;38531;53.296;6.614;2022-09-16T00:28:25;11.30;99.90
52643;DHT22;38531;53.296;6.614;2022-09-16T00:30:50;11.30;99.90
52643;DHT22;38531;53.296;6.614;2022-09-16T00:33:17;11.60;99.90
52643;DHT22;38531;53.296;6.614;2022-09-16T00:35:43;11.30;99.90
52643;DHT22;38531;53.296;6.614;2022-09-16T00:38:09;11.30;99.90
52643;DHT22;38531;53.296;6.614;2022-09-16T00:40:42;11.60;99.90
52643;DHT22;38531;53.296;6.614;2022-09-16T00:43:10;11.90;99.90
52643;DHT22;38531;53.296;6.614;2022-09-16T00:45:37;11.60;99.90
52643;DHT22;38531;53.296;6.614;2022-09-16T00:48:05;11.30;99.90
52643;DHT22;38531;53.296;6.614;2022-09-16T00:50:45;12.30;99.90
52643;DHT22;38531;53.296;6.614;2022-09-16T00:53:35;11.20;99.90
52643;DHT22;38531;53.296;6.614;2022-09-16T00:56:05;11.90;99.90
52643;DHT22;38531;53.296;6.614;2022-09-16T00:58:41;11.20;99.90
52643;DHT22;38531;53.296;6.614;2022-09-16T01:01:08;11.10;99.90
52643;DHT22;38531;53.296;6.614;2022-09-16T01:03:43;11.50;99.90
52643;DHT22;38531;53.296;6.614;2022-09-16T01:06:10;11.10;99.90
52643;DHT22;38531;53.296;6.614;2022-09-16T01:08:36;11.10;99.90
52643;DHT22;38531;53.296;6.614;2022-09-16T01:11:02;11.60;99.90
52643;DHT22;38531;53.296;6.614;2022-09-16T01:13:28;11.10;99.90
52643;DHT22;38531;53.296;6.614;2022-09-16T01:16:26;11.90;99.90
52643;DHT22;38531;53.296;6.614;2022-09-16T01:27:25;11.10;99.90
52643;DHT22;38531;53.296;6.614;2022-09-16T01:30:13;11.10;99.90
52643;DHT22;38531;53.296;6.614;2022-09-16T01:33:01;11.10;99.90
52643;DHT22;38531;53.296;6.614;2022-09-16T01:45:20;11.10;99.90
52643;DHT22;38531;53.296;6.614;2022-09-16T01:51:06;11.20;99.90
52643;DHT22;38531;53.296;6.614;2022-09-16T01:53:47;11.00;99.90
52643;DHT22;38531;53.296;6.614;2022-09-16T01:56:23;11.00;99.90
52643;DHT22;38531;53.296;6.614;2022-09-16T01:58:59;11.00;99.90
52643;DHT22;38531;53.296;6.614;2022-09-16T02:01:32;11.60;99.90
52643;DHT22;38531;53.296;6.614;2022-09-16T02:04:05;11.60;99.90
52643;DHT22;38531;53.296;6.614;2022-09-16T02:06:33;11.00;99.90
52643;DHT22;38531;53.296;6.614;2022-09-16T02:09:04;11.00;99.90
52643;DHT22;38531;53.296;6.614;2022-09-16T02:11:33;11.00;99.90
52643;DHT22;38531;53.296;6.614;2022-09-16T02:14:05;11.00;99.90
52643;DHT22;38531;53.296;6.614;2022-09-16T02:16:44;11.50;99.90
52643;DHT22;38531;53.296;6.614;2022-09-16T02:19:25;10.90;99.90
52643;DHT22;38531;53.296;6.614;2022-09-16T02:21:53;10.90;99.90
52643;DHT22;38531;53.296;6.614;2022-09-16T02:24:21;11.60;99.90
52643;DHT22;38531;53.296;6.614;2022-09-16T02:26:55;11.70;99.90
52643;DHT22;38531;53.296;6.614;2022-09-16T02:29:25;11.00;99.90
52643;DHT22;38531;53.296;6.614;2022-09-16T02:31:54;10.80;99.90
52643;DHT22;38531;53.296;6.614;2022-09-16T02:34:36;11.10;99.90
52643;DHT22;38531;53.296;6.614;2022-09-16T02:37:10;10.90;99.90
52643;DHT22;38531;53.296;6.614;2022-09-16T02:39:38;10.90;99.90
52643;DHT22;38531;53.296;6.614;2022-09-16T02:42:05;10.90;99.90
52643;DHT22;38531;53.296;6.614;2022-09-16T02:44:32;10.90;99.90
52643;DHT22;38531;53.296;6.614;2022-09-16T02:47:08;11.10;99.90
52643;DHT22;38531;53.296;6.614;2022-09-16T02:52:41;10.90;99.90
52643;DHT22;38531;53.296;6.614;2022-09-16T02:57:36;10.90;99.90
52643;DHT22;38531;53.296;6.614;2022-09-16T03:00:04;10.90;99.90
52643;DHT22;38531;53.296;6.614;2022-09-16T03:02:32;10.90;99.90
52643;DHT22;38531;53.296;6.614;2022-09-16T03:04:59;11.10;99.90
52643;DHT22;38531;53.296;6.614;2022-09-16T03:07:25;10.90;99.90
52643;DHT22;38531;53.296;6.614;2022-09-16T03:09:51;10.90;99.90
52643;DHT22;38531;53.296;6.614;2022-09-16T03:16:04;10.80;99.90
52643;DHT22;38531;53.296;6.614;2022-09-16T03:24:20;10.70;99.90
52643;DHT22;38531;53.296;6.614;2022-09-16T03:27:03;10.70;99.90
52643;DHT22;38531;53.296;6.614;2022-09-16T03:29:45;10.70;99.90
52643;DHT22;38531;53.296;6.614;2022-09-16T03:32:53;10.60;99.90
52643;DHT22;38531;53.296;6.614;2022-09-16T03:35:29;10.60;99.90
52643;DHT22;38531;53.296;6.614;2022-09-16T03:37:57;10.60;99.90
52643;DHT22;38531;53.296;6.614;2022-09-16T03:44:03;10.50;99.90
52643;DHT22;38531;53.296;6.614;2022-09-16T03:46:29;11.20;99.90
52643;DHT22;38531;53.296;6.614;2022-09-16T03:48:55;11.20;99.90
52643;DHT22;38531;53.296;6.614;2022-09-16T03:51:22;10.50;99.90
52643;DHT22;38531;53.296;6.614;2022-09-16T03:53:49;10.40;99.90
52643;DHT22;38531;53.296;6.614;2022-09-16T03:56:15;10.40;99.90
52643;DHT22;38531;53.296;6.614;2022-09-16T03:58:41;10.30;99.90
52643;DHT22;38531;53.296;6.614;2022-09-16T04:01:06;10.30;99.90
52643;DHT22;38531;53.296;6.614;2022-09-16T04:03:32;10.30;99.90
52643;DHT22;38531;53.296;6.614;2022-09-16T04:05:58;10.70;99.90
52643;DHT22;38531;53.296;6.614;2022-09-16T04:08:24;11.10;99.90
52643;DHT22;38531;53.296;6.614;2022-09-16T04:11:00;10.20;99.90
52643;DHT22;38531;53.296;6.614;2022-09-16T04:13:31;10.90;99.90
52643;DHT22;38531;53.296;6.614;2022-09-16T04:15:58;10.20;99.90
52643;DHT22;38531;53.296;6.614;2022-09-16T04:18:23;10.20;99.90
52643;DHT22;38531;53.296;6.614;2022-09-16T04:20:50;9.60;99.90
52643;DHT22;38531;53.296;6.614;2022-09-16T04:23:22;11.00;99.90
52643;DHT22;38531;53.296;6.614;2022-09-16T04:25:56;10.90;99.90
52643;DHT22;38531;53.296;6.614;2022-09-16T04:28:22;10.10;99.90
52643;DHT22;38531;53.296;6.614;2022-09-16T04:30:48;10.10;99.90
52643;DHT22;38531;53.296;6.614;2022-09-16T04:33:14;10.00;99.90
52643;DHT22;38531;53.296;6.614;2022-09-16T04:35:40;10.80;99.90
52643;DHT22;38531;53.296;6.614;2022-09-16T04:38:06;10.20;99.90
52643;DHT22;38531;53.296;6.614;2022-09-16T04:44:12;9.90;99.90
52643;DHT22;38531;53.296;6.614;2022-09-16T04:46:39;11.00;99.90
52643;DHT22;38531;53.296;6.614;2022-09-16T04:49:04;11.00;99.90
52643;DHT22;38531;53.296;6.614;2022-09-16T04:51:30;10.40;99.90
52643;DHT22;38531;53.296;6.614;2022-09-16T04:53:58;10.10;99.90
52643;DHT22;38531;53.296;6.614;2022-09-16T04:56:29;9.90;99.90
52643;DHT22;38531;53.296;6.614;2022-09-16T04:58:58;9.90;99.90
52643;DHT22;38531;53.296;6.614;2022-09-16T05:01:27;10.00;99.90
52643;DHT22;38531;53.296;6.614;2022-09-16T05:03:58;9.80;99.90
52643;DHT22;38531;53.296;6.614;2022-09-16T05:06:31;10.30;99.90
52643;DHT22;38531;53.296;6.614;2022-09-16T05:08:58;9.80;99.90
52643;DHT22;38531;53.296;6.614;2022-09-16T05:11:30;9.80;99.90
52643;DHT22;38531;53.296;6.614;2022-09-16T05:14:00;9.80;99.90
52643;DHT22;38531;53.296;6.614;2022-09-16T05:16:27;9.80;99.90
52643;DHT22;38531;53.296;6.614;2022-09-16T05:18:56;10.00;99.90
52643;DHT22;38531;53.296;6.614;2022-09-16T05:21:24;10.50;99.90
52643;DHT22;38531;53.296;6.614;2022-09-16T05:23:50;9.80;99.90
52643;DHT22;38531;53.296;6.614;2022-09-16T05:26:22;9.80;99.90
52643;DHT22;38531;53.296;6.614;2022-09-16T05:28:48;9.80;99.90
52643;DHT22;38531;53.296;6.614;2022-09-16T05:31:16;10.10;99.90
52643;DHT22;38531;53.296;6.614;2022-09-16T05:33:46;10.00;99.90
52643;DHT22;38531;53.296;6.614;2022-09-16T05:36:14;10.50;99.90
52643;DHT22;38531;53.296;6.614;2022-09-16T05:38:43;11.10;99.90
52643;DHT22;38531;53.296;6.614;2022-09-16T05:41:10;10.20;99.90
52643;DHT22;38531;53.296;6.614;2022-09-16T05:43:36;10.40;99.90
52643;DHT22;38531;53.296;6.614;2022-09-16T05:46:03;10.40;99.90
52643;DHT22;38531;53.296;6.614;2022-09-16T05:48:29;10.50;99.90
52643;DHT22;38531;53.296;6.614;2022-09-16T05:50:59;10.60;99.90
52643;DHT22;38531;53.296;6.614;2022-09-16T05:53:27;10.60;99.90
52643;DHT22;38531;53.296;6.614;2022-09-16T05:58:28;10.60;99.90
52643;DHT22;38531;53.296;6.614;2022-09-16T06:01:02;10.60;99.90
52643;DHT22;38531;53.296;6.614;2022-09-16T06:03:28;10.60;99.90
52643;DHT22;38531;53.296;6.614;2022-09-16T06:06:01;10.60;99.90
52643;DHT22;38531;53.296;6.614;2022-09-16T06:08:29;10.70;99.90
52643;DHT22;38531;53.296;6.614;2022-09-16T06:10:55;10.60;99.90
52643;DHT22;38531;53.296;6.614;2022-09-16T06:13:21;10.90;99.90
52643;DHT22;38531;53.296;6.614;2022-09-16T06:15:48;10.70;99.90
52643;DHT22;38531;53.296;6.614;2022-09-16T06:18:16;11.70;99.90
52643;DHT22;38531;53.296;6.614;2022-09-16T06:20:41;10.50;99.90
52643;DHT22;38531;53.296;6.614;2022-09-16T06:23:07;11.50;99.90
52643;DHT22;38531;53.296;6.614;2022-09-16T06:25:33;10.90;99.90
52643;DHT22;38531;53.296;6.614;2022-09-16T06:28:14;10.70;99.90
52643;DHT22;38531;53.296;6.614;2022-09-16T06:30:40;10.70;99.90
52643;DHT22;38531;53.296;6.614;2022-09-16T06:33:06;10.80;99.90
52643;DHT22;38531;53.296;6.614;2022-09-16T06:35:34;10.90;99.90
52643;DHT22;38531;53.296;6.614;2022-09-16T06:38:00;11.00;99.90
52643;DHT22;38531;53.296;6.614;2022-09-16T06:44:07;10.90;99.90
52643;DHT22;38531;53.296;6.614;2022-09-16T06:46:33;11.30;99.90
52643;DHT22;38531;53.296;6.614;2022-09-16T06:49:04;11.30;99.90
52643;DHT22;38531;53.296;6.614;2022-09-16T06:51:30;11.40;99.90
52643;DHT22;38531;53.296;6.614;2022-09-16T07:01:12;12.20;99.90
52643;DHT22;38531;53.296;6.614;2022-09-16T07:03:43;12.40;99.90
52643;DHT22;38531;53.296;6.614;2022-09-16T07:06:10;12.70;99.90
52643;DHT22;38531;53.296;6.614;2022-09-16T07:08:36;12.70;99.90
52643;DHT22;38531;53.296;6.614;2022-09-16T07:14:39;12.90;99.90
52643;DHT22;38531;53.296;6.614;2022-09-16T07:17:17;13.00;99.90
52643;DHT22;38531;53.296;6.614;2022-09-16T07:20:07;13.00;99.90
52643;DHT22;38531;53.296;6.614;2022-09-16T07:22:38;13.10;99.90
52643;DHT22;38531;53.296;6.614;2022-09-16T07:29:03;13.10;99.90
52643;DHT22;38531;53.296;6.614;2022-09-16T07:31:44;13.20;99.90
52643;DHT22;38531;53.296;6.614;2022-09-16T07:52:23;12.60;99.90
52643;DHT22;38531;53.296;6.614;2022-09-16T07:54:56;12.80;99.90
52643;DHT22;38531;53.296;6.614;2022-09-16T07:57:22;12.90;99.90
52643;DHT22;38531;53.296;6.614;2022-09-16T07:59:49;13.00;99.90
52643;DHT22;38531;53.296;6.614;2022-09-16T08:02:15;13.10;99.90
52643;DHT22;38531;53.296;6.614;2022-09-16T08:04:42;13.30;99.90
52643;DHT22;38531;53.296;6.614;2022-09-16T08:07:08;13.40;99.90
52643;DHT22;38531;53.296;6.614;2022-09-16T08:09:33;13.90;99.90
52643;DHT22;38531;53.296;6.614;2022-09-16T08:12:01;13.80;99.90
52643;DHT22;38531;53.296;6.614;2022-09-16T08:14:34;14.10;99.90
52643;DHT22;38531;53.296;6.614;2022-09-16T08:17:03;14.40;99.90
52643;DHT22;38531;53.296;6.614;2022-09-16T08:19:31;14.40;99.90
52643;DHT22;38531;53.296;6.614;2022-09-16T08:21:57;14.60;99.90
52643;DHT22;38531;53.296;6.614;2022-09-16T08:24:23;14.60;99.90
52643;DHT22;38531;53.296;6.614;2022-09-16T08:26:49;14.70;99.90
52643;DHT22;38531;53.296;6.614;2022-09-16T08:29:17;14.90;99.90
52643;DHT22;38531;53.296;6.614;2022-09-16T08:31:43;15.00;99.90
52643;DHT22;38531;53.296;6.614;2022-09-16T08:34:09;15.30;99.90
52643;DHT22;38531;53.296;6.614;2022-09-16T08:36:34;15.50;99.90
52643;DHT22;38531;53.296;6.614;2022-09-16T08:39:03;15.40;99.90
52643;DHT22;38531;53.296;6.614;2022-09-16T08:49:41;16.00;99.90
52643;DHT22;38531;53.296;6.614;2022-09-16T08:52:14;15.80;99.90
52643;DHT22;38531;53.296;6.614;2022-09-16T08:54:50;15.80;99.90
52643;DHT22;38531;53.296;6.614;2022-09-16T08:57:20;15.80;99.90
52643;DHT22;38531;53.296;6.614;2022-09-16T08:59:56;15.90;99.90
52643;DHT22;38531;53.296;6.614;2022-09-16T09:02:40;16.00;99.90
52643;DHT22;38531;53.296;6.614;2022-09-16T09:05:19;16.40;99.90
52643;DHT22;38531;53.296;6.614;2022-09-16T09:08:09;16.60;99.90
52643;DHT22;38531;53.296;6.614;2022-09-16T09:10:48;16.30;99.90
52643;DHT22;38531;53.296;6.614;2022-09-16T09:18:42;15.70;99.90
52643;DHT22;38531;53.296;6.614;2022-09-16T09:24:03;16.20;99.90
52643;DHT22;38531;53.296;6.614;2022-09-16T09:32:23;16.50;97.50
52643;DHT22;38531;53.296;6.614;2022-09-16T09:35:24;16.40;98.50
52643;DHT22;38531;53.296;6.614;2022-09-16T09:46:32;16.90;97.90
52643;DHT22;38531;53.296;6.614;2022-09-16T09:54:49;16.50;99.90
52643;DHT22;38531;53.296;6.614;2022-09-16T09:57:38;17.00;99.90
52643;DHT22;38531;53.296;6.614;2022-09-16T10:00:17;16.40;99.90
52643;DHT22;38531;53.296;6.614;2022-09-16T10:03:19;16.50;99.90
52643;DHT22;38531;53.296;6.614;2022-09-16T10:05:59;16.60;99.90
52643;DHT22;38531;53.296;6.614;2022-09-16T10:08:29;17.00;99.90
52643;DHT22;38531;53.296;6.614;2022-09-16T10:14:48;17.30;99.90
52643;DHT22;38531;53.296;6.614;2022-09-16T10:17:16;17.60;98.60
52643;DHT22;38531;53.296;6.614;2022-09-16T10:20:00;17.70;98.90
52643;DHT22;38531;53.296;6.614;2022-09-16T10:22:29;17.80;98.00
52643;DHT22;38531;53.296;6.614;2022-09-16T10:25:00;17.60;97.70
52643;DHT22;38531;53.296;6.614;2022-09-16T10:27:34;17.50;97.30
52643;DHT22;38531;53.296;6.614;2022-09-16T10:30:13;17.40;98.00
52643;DHT22;38531;53.296;6.614;2022-09-16T10:33:01;17.60;98.60
52643;DHT22;38531;53.296;6.614;2022-09-16T10:35:32;17.80;98.80
52643;DHT22;38531;53.296;6.614;2022-09-16T10:38:03;18.00;98.10
52643;DHT22;38531;53.296;6.614;2022-09-16T10:40:30;18.00;97.10
52643;DHT22;38531;53.296;6.614;2022-09-16T10:43:05;17.90;96.30
52643;DHT22;38531;53.296;6.614;2022-09-16T10:45:36;17.70;97.10
52643;DHT22;38531;53.296;6.614;2022-09-16T10:48:14;17.50;98.10
52643;DHT22;38531;53.296;6.614;2022-09-16T10:51:04;17.70;96.90
52643;DHT22;38531;53.296;6.614;2022-09-16T10:53:36;17.70;96.10
52643;DHT22;38531;53.296;6.614;2022-09-16T10:56:19;17.70;96.40
52643;DHT22;38531;53.296;6.614;2022-09-16T10:58:45;17.90;95.80
52643;DHT22;38531;53.296;6.614;2022-09-16T11:01:34;18.00;95.70
52643;DHT22;38531;53.296;6.614;2022-09-16T11:04:18;18.00;96.10
52643;DHT22;38531;53.296;6.614;2022-09-16T11:12:38;17.00;99.90
52643;DHT22;38531;53.296;6.614;2022-09-16T11:20:58;16.80;99.90
52643;DHT22;38531;53.296;6.614;2022-09-16T11:31:43;17.90;94.70
52643;DHT22;38531;53.296;6.614;2022-09-16T11:37:07;18.10;94.00
52643;DHT22;38531;53.296;6.614;2022-09-16T11:39:55;18.00;94.70
52643;DHT22;38531;53.296;6.614;2022-09-16T11:42:43;18.10;95.00
52643;DHT22;38531;53.296;6.614;2022-09-16T11:45:44;18.20;94.90
52643;DHT22;38531;53.296;6.614;2022-09-16T11:56:35;17.80;95.70
52643;DHT22;38531;53.296;6.614;2022-09-16T12:01:35;17.70;96.50
52643;DHT22;38531;53.296;6.614;2022-09-16T12:04:15;17.60;97.10
52643;DHT22;38531;53.296;6.614;2022-09-16T12:07:11;17.70;97.60
52643;DHT22;38531;53.296;6.614;2022-09-16T12:09:45;17.40;98.40
52643;DHT22;38531;53.296;6.614;2022-09-16T12:12:23;17.70;95.80
52643;DHT22;38531;53.296;6.614;2022-09-16T12:15:02;17.70;94.60
52643;DHT22;38531;53.296;6.614;2022-09-16T12:17:39;17.50;95.40
52643;DHT22;38531;53.296;6.614;2022-09-16T12:20:28;17.60;93.80
52643;DHT22;38531;53.296;6.614;2022-09-16T12:23:14;17.80;94.10
52643;DHT22;38531;53.296;6.614;2022-09-16T12:25:46;17.10;95.20
52643;DHT22;38531;53.296;6.614;2022-09-16T12:28:24;17.70;95.30
52643;DHT22;38531;53.296;6.614;2022-09-16T12:34:00;17.80;95.70
52643;DHT22;38531;53.296;6.614;2022-09-16T12:36:42;17.70;95.70
52643;DHT22;38531;53.296;6.614;2022-09-16T12:39:16;17.30;96.40
52643;DHT22;38531;53.296;6.614;2022-09-16T12:48:28;17.20;96.50
52643;DHT22;38531;53.296;6.614;2022-09-16T12:53:39;17.30;96.40
52643;DHT22;38531;53.296;6.614;2022-09-16T13:02:18;17.30;96.50
52643;DHT22;38531;53.296;6.614;2022-09-16T13:06:18;17.20;98.70
52643;DHT22;38531;53.296;6.614;2022-09-16T13:15:19;16.00;99.90
52643;DHT22;38531;53.296;6.614;2022-09-16T13:24:05;15.40;99.90
52643;DHT22;38531;53.296;6.614;2022-09-16T13:30:36;15.10;99.90
52643;DHT22;38531;53.296;6.614;2022-09-16T13:35:38;14.80;99.90
52643;DHT22;38531;53.296;6.614;2022-09-16T13:40:53;14.80;99.90
52643;DHT22;38531;53.296;6.614;2022-09-16T13:46:13;14.70;99.90
52643;DHT22;38531;53.296;6.614;2022-09-16T13:49:14;14.70;99.90
52643;DHT22;38531;53.296;6.614;2022-09-16T13:51:46;14.70;99.90
52643;DHT22;38531;53.296;6.614;2022-09-16T13:54:25;14.80;99.90
52643;DHT22;38531;53.296;6.614;2022-09-16T14:00:24;14.80;99.90
52643;DHT22;38531;53.296;6.614;2022-09-16T14:11:56;14.90;99.90
52643;DHT22;38531;53.296;6.614;2022-09-16T14:14:27;15.00;99.90
52643;DHT22;38531;53.296;6.614;2022-09-16T14:16:54;15.20;99.90
52643;DHT22;38531;53.296;6.614;2022-09-16T14:19:38;15.30;99.90
52643;DHT22;38531;53.296;6.614;2022-09-16T14:35:53;14.40;99.90
52643;DHT22;38531;53.296;6.614;2022-09-16T14:38:35;14.20;99.90
52643;DHT22;38531;53.296;6.614;2022-09-16T14:41:15;14.30;99.90
52643;DHT22;38531;53.296;6.614;2022-09-16T14:43:48;14.40;99.90
52643;DHT22;38531;53.296;6.614;2022-09-16T14:46:25;14.40;99.90
52643;DHT22;38531;53.296;6.614;2022-09-16T14:49:11;14.40;99.90
52643;DHT22;38531;53.296;6.614;2022-09-16T14:55:24;14.20;99.90
52643;DHT22;38531;53.296;6.614;2022-09-16T15:01:25;14.10;99.90
52643;DHT22;38531;53.296;6.614;2022-09-16T15:04:15;14.10;99.90
52643;DHT22;38531;53.296;6.614;2022-09-16T15:06:58;14.30;99.90
52643;DHT22;38531;53.296;6.614;2022-09-16T15:10:00;14.40;99.90
52643;DHT22;38531;53.296;6.614;2022-09-16T15:12:32;14.40;99.90
52643;DHT22;38531;53.296;6.614;2022-09-16T15:32:41;13.80;99.90
52643;DHT22;38531;53.296;6.614;2022-09-16T16:13:37;13.50;99.90
52643;DHT22;38531;53.296;6.614;2022-09-16T16:16:21;13.40;99.90
52643;DHT22;38531;53.296;6.614;2022-09-16T16:19:08;13.50;99.90
52643;DHT22;38531;53.296;6.614;2022-09-16T16:22:01;13.50;99.90
52643;DHT22;38531;53.296;6.614;2022-09-16T16:24:32;13.80;99.90
52643;DHT22;38531;53.296;6.614;2022-09-16T16:37:18;13.60;99.90
52643;DHT22;38531;53.296;6.614;2022-09-16T16:42:34;14.20;99.90
52643;DHT22;38531;53.296;6.614;2022-09-16T16:51:29;14.20;99.90
52643;DHT22;38531;53.296;6.614;2022-09-16T16:53:55;14.00;99.90
52643;DHT22;38531;53.296;6.614;2022-09-16T16:56:37;14.20;99.90
52643;DHT22;38531;53.296;6.614;2022-09-16T16:59:14;14.20;99.90
52643;DHT22;38531;53.296;6.614;2022-09-16T17:01:50;14.00;99.90
52643;DHT22;38531;53.296;6.614;2022-09-16T17:04:16;13.80;99.90
52643;DHT22;38531;53.296;6.614;2022-09-16T17:06:43;13.60;99.90
52643;DHT22;38531;53.296;6.614;2022-09-16T17:09:11;13.60;99.90
52643;DHT22;38531;53.296;6.614;2022-09-16T17:15:25;13.40;99.90
52643;DHT22;38531;53.296;6.614;2022-09-16T17:18:06;13.40;99.90
52643;DHT22;38531;53.296;6.614;2022-09-16T17:20:32;13.30;99.90
52643;DHT22;38531;53.296;6.614;2022-09-16T17:23:38;13.30;99.90
52643;DHT22;38531;53.296;6.614;2022-09-16T17:26:27;13.40;99.90
52643;DHT22;38531;53.296;6.614;2022-09-16T17:29:04;13.30;99.90
52643;DHT22;38531;53.296;6.614;2022-09-16T17:31:39;13.20;99.90
52643;DHT22;38531;53.296;6.614;2022-09-16T17:34:17;13.20;99.90
52643;DHT22;38531;53.296;6.614;2022-09-16T17:36:46;13.70;99.90
52643;DHT22;38531;53.296;6.614;2022-09-16T17:45:14;13.40;99.90
52643;DHT22;38531;53.296;6.614;2022-09-16T17:50:32;13.20;99.90
52643;DHT22;38531;53.296;6.614;2022-09-16T17:53:12;12.90;99.90
52643;DHT22;38531;53.296;6.614;2022-09-16T17:58:16;12.60;99.90
52643;DHT22;38531;53.296;6.614;2022-09-16T18:00:48;12.60;99.90
52643;DHT22;38531;53.296;6.614;2022-09-16T18:06:47;12.50;99.90
52643;DHT22;38531;53.296;6.614;2022-09-16T18:12:10;12.60;99.90
52643;DHT22;38531;53.296;6.614;2022-09-16T18:15:24;12.30;99.90
52643;DHT22;38531;53.296;6.614;2022-09-16T18:17:53;12.50;99.90
52643;DHT22;38531;53.296;6.614;2022-09-16T18:25:54;12.70;99.90
52643;DHT22;38531;53.296;6.614;2022-09-16T18:28:46;12.90;99.90
52643;DHT22;38531;53.296;6.614;2022-09-16T18:31:40;12.80;99.90
52643;DHT22;38531;53.296;6.614;2022-09-16T18:34:37;13.10;99.90
52643;DHT22;38531;53.296;6.614;2022-09-16T18:37:21;13.00;99.90
52643;DHT22;38531;53.296;6.614;2022-09-16T18:39:51;13.40;99.90
52643;DHT22;38531;53.296;6.614;2022-09-16T18:46:18;13.10;99.90
52643;DHT22;38531;53.296;6.614;2022-09-16T18:48:46;12.90;99.90
52643;DHT22;38531;53.296;6.614;2022-09-16T18:51:23;12.90;99.90
52643;DHT22;38531;53.296;6.614;2022-09-16T18:53:51;12.90;99.90
52643;DHT22;38531;53.296;6.614;2022-09-16T18:56:20;13.40;99.90
52643;DHT22;38531;53.296;6.614;2022-09-16T18:58:46;12.80;99.90
52643;DHT22;38531;53.296;6.614;2022-09-16T19:01:32;12.80;99.90
52643;DHT22;38531;53.296;6.614;2022-09-16T19:03:59;13.20;99.90
52643;DHT22;38531;53.296;6.614;2022-09-16T19:06:32;12.80;99.90
52643;DHT22;38531;53.296;6.614;2022-09-16T19:09:00;13.20;99.90
52643;DHT22;38531;53.296;6.614;2022-09-16T19:11:27;13.20;99.90
52643;DHT22;38531;53.296;6.614;2022-09-16T19:13:53;13.10;99.90
52643;DHT22;38531;53.296;6.614;2022-09-16T19:16:19;14.00;99.90
52643;DHT22;38531;53.296;6.614;2022-09-16T19:18:52;12.90;99.90
52643;DHT22;38531;53.296;6.614;2022-09-16T19:21:20;12.80;99.90
52643;DHT22;38531;53.296;6.614;2022-09-16T19:23:53;12.70;99.90
52643;DHT22;38531;53.296;6.614;2022-09-16T19:26:19;12.80;99.90
52643;DHT22;38531;53.296;6.614;2022-09-16T19:28:45;12.70;99.90
52643;DHT22;38531;53.296;6.614;2022-09-16T19:31:12;12.80;99.90
52643;DHT22;38531;53.296;6.614;2022-09-16T19:33:46;12.90;99.90
52643;DHT22;38531;53.296;6.614;2022-09-16T19:36:18;12.80;99.90
52643;DHT22;38531;53.296;6.614;2022-09-16T19:38:47;12.60;99.90
52643;DHT22;38531;53.296;6.614;2022-09-16T19:41:17;13.00;99.90
52643;DHT22;38531;53.296;6.614;2022-09-16T19:43:51;12.90;99.90
52643;DHT22;38531;53.296;6.614;2022-09-16T19:49:19;12.80;99.90
52643;DHT22;38531;53.296;6.614;2022-09-16T19:51:46;12.80;99.90
52643;DHT22;38531;53.296;6.614;2022-09-16T19:54:15;12.70;99.90
52643;DHT22;38531;53.296;6.614;2022-09-16T20:00:00;12.80;99.90
52643;DHT22;38531;53.296;6.614;2022-09-16T20:02:35;12.50;99.90
52643;DHT22;38531;53.296;6.614;2022-09-16T20:05:35;13.20;99.90
52643;DHT22;38531;53.296;6.614;2022-09-16T20:08:09;13.00;99.90
52643;DHT22;38531;53.296;6.614;2022-09-16T20:11:34;12.80;99.90
52643;DHT22;38531;53.296;6.614;2022-09-16T20:14:31;12.90;99.90
52643;DHT22;38531;53.296;6.614;2022-09-16T20:16:58;12.90;99.90
52643;DHT22;38531;53.296;6.614;2022-09-16T20:19:47;12.90;99.90
52643;DHT22;38531;53.296;6.614;2022-09-16T20:22:31;12.90;99.90
52643;DHT22;38531;53.296;6.614;2022-09-16T20:25:02;12.50;99.90
52643;DHT22;38531;53.296;6.614;2022-09-16T20:27:28;12.50;99.90
52643;DHT22;38531;53.296;6.614;2022-09-16T20:35:05;12.80;99.90
52643;DHT22;38531;53.296;6.614;2022-09-16T20:51:39;12.70;99.90
52643;DHT22;38531;53.296;6.614;2022-09-16T20:54:14;12.70;99.90
52643;DHT22;38531;53.296;6.614;2022-09-16T20:56:42;12.90;99.90
52643;DHT22;38531;53.296;6.614;2022-09-16T20:59:57;12.90;99.90
52643;DHT22;38531;53.296;6.614;2022-09-16T21:02:23;12.90;99.90
52643;DHT22;38531;53.296;6.614;2022-09-16T21:04:49;12.90;99.90
52643;DHT22;38531;53.296;6.614;2022-09-16T21:07:18;12.90;99.90
52643;DHT22;38531;53.296;6.614;2022-09-16T21:09:52;13.30;99.90
52643;DHT22;38531;53.296;6.614;2022-09-16T21:12:30;12.80;99.90
52643;DHT22;38531;53.296;6.614;2022-09-16T21:14:56;13.10;99.90
52643;DHT22;38531;53.296;6.614;2022-09-16T21:17:27;12.50;99.90
52643;DHT22;38531;53.296;6.614;2022-09-16T21:20:06;12.70;99.90
52643;DHT22;38531;53.296;6.614;2022-09-16T21:25:38;13.10;99.90
52643;DHT22;38531;53.296;6.614;2022-09-16T21:32:05;12.30;99.90
52643;DHT22;38531;53.296;6.614;2022-09-16T21:35:19;12.50;99.90
52643;DHT22;38531;53.296;6.614;2022-09-16T21:38:00;12.70;99.90
52643;DHT22;38531;53.296;6.614;2022-09-16T21:43:47;12.80;99.90
52643;DHT22;38531;53.296;6.614;2022-09-16T21:46:33;12.30;99.90
52643;DHT22;38531;53.296;6.614;2022-09-16T21:49:21;12.30;99.90
52643;DHT22;38531;53.296;6.614;2022-09-16T21:52:01;12.50;99.90
52643;DHT22;38531;53.296;6.614;2022-09-16T21:54:58;12.60;99.90
52643;DHT22;38531;53.296;6.614;2022-09-16T21:57:55;13.20;99.90
52643;DHT22;38531;53.296;6.614;2022-09-16T22:00:30;12.80;99.90
52643;DHT22;38531;53.296;6.614;2022-09-16T22:03:05;12.80;99.90
52643;DHT22;38531;53.296;6.614;2022-09-16T22:05:34;12.80;99.90
52643;DHT22;38531;53.296;6.614;2022-09-16T22:08:00;12.80;99.90
52643;DHT22;38531;53.296;6.614;2022-09-16T22:10:29;12.80;99.90
52643;DHT22;38531;53.296;6.614;2022-09-16T22:12:58;12.80;99.90
52643;DHT22;38531;53.296;6.614;2022-09-16T22:15:28;13.00;99.90
52643;DHT22;38531;53.296;6.614;2022-09-16T22:17:57;12.80;99.90
52643;DHT22;38531;53.296;6.614;2022-09-16T22:20:23;12.70;99.90
52643;DHT22;38531;53.296;6.614;2022-09-16T22:22:51;12.70;99.90
52643;DHT22;38531;53.296;6.614;2022-09-16T22:25:17;13.50;99.90
52643;DHT22;38531;53.296;6.614;2022-09-16T22:27:43;13.00;99.90
52643;DHT22;38531;53.296;6.614;2022-09-16T22:30:10;13.10;99.90